Time;durP1;ratioP1;P1;durP2;ratioP2;P2;SDS_P1;SDS_P2;PMS_P1;PMS_P2;Temp;Humidity;BMP_temperature;BMP_pressure;BME280_temperature;BME280_humidity;BME280_pressure;Samples;Min_cycle;Max_cycle;Signal;HPM_P1;HPM_P2
2021/10/08 00:01:51;;;;;;;6.20;4.60;;;12.00;99.90;;;;;;4996441;28;20429;-80
2021/10/08 00:04:19;;;;;;;6.43;4.80;;;12.00;99.90;;;;;;4997074;28;20455;-79
2021/10/08 00:06:47;;;;;;;6.93;4.30;;;12.00;99.90;;;;;;4997471;28;20437;-79
2021/10/08 00:09:14;;;;;;;8.30;5.10;;;11.90;99.90;;;;;;4995810;28;20565;-79
2021/10/08 00:11:40;;;;;;;7.10;5.00;;;11.90;99.90;;;;;;4996599;28;20491;-81
2021/10/08 00:14:07;;;;;;;6.43;4.40;;;11.90;99.90;;;;;;4995890;28;20471;-79
2021/10/08 00:16:34;;;;;;;5.80;4.07;;;11.90;99.90;;;;;;4997114;28;20463;-80
2021/10/08 00:19:01;;;;;;;8.93;4.43;;;12.00;99.90;;;;;;4996302;28;20483;-80
2021/10/08 00:21:28;;;;;;;10.93;4.33;;;12.00;99.90;;;;;;4995796;28;20454;-80
2021/10/08 00:23:56;;;;;;;5.00;3.80;;;12.00;99.90;;;;;;4995910;28;20435;-80
2021/10/08 00:26:23;;;;;;;7.00;4.73;;;12.00;99.90;;;;;;4995574;28;20948;-80
2021/10/08 00:28:50;;;;;;;6.33;4.40;;;12.10;99.90;;;;;;4996024;28;20467;-79
2021/10/08 00:31:16;;;;;;;6.47;4.10;;;12.10;99.90;;;;;;4995983;28;20481;-79
2021/10/08 00:33:43;;;;;;;6.07;4.13;;;12.00;99.90;;;;;;5014274;28;20523;-79
2021/10/08 00:36:10;;;;;;;9.53;4.73;;;11.90;99.90;;;;;;5003104;28;20435;-79
2021/10/08 00:38:39;;;;;;;6.47;4.50;;;11.90;99.90;;;;;;5003487;28;20471;-79
2021/10/08 00:41:08;;;;;;;6.57;5.17;;;11.90;99.90;;;;;;4996021;28;20956;-79
2021/10/08 00:43:35;;;;;;;6.60;4.30;;;11.90;99.90;;;;;;4995884;28;20946;-79
2021/10/08 00:46:02;;;;;;;10.60;4.13;;;11.80;99.90;;;;;;4997235;28;20501;-79
2021/10/08 00:48:29;;;;;;;5.70;4.17;;;11.80;99.90;;;;;;4997837;28;20777;-79
2021/10/08 00:50:58;;;;;;;7.43;4.70;;;11.80;99.90;;;;;;4995841;28;20476;-79
2021/10/08 00:53:24;;;;;;;6.40;4.27;;;11.80;99.90;;;;;;4995857;28;20501;-79
2021/10/08 00:55:52;;;;;;;7.50;4.47;;;11.80;99.90;;;;;;4996712;28;20459;-78
2021/10/08 00:58:22;;;;;;;8.23;5.10;;;11.70;99.90;;;;;;5005810;28;20481;-78
2021/10/08 01:00:51;;;;;;;6.37;4.87;;;11.60;99.90;;;;;;5005748;28;20439;-79
2021/10/08 01:03:19;;;;;;;7.47;4.93;;;11.60;99.90;;;;;;5002211;28;20477;-78
2021/10/08 01:05:47;;;;;;;5.80;4.67;;;11.60;99.90;;;;;;5013638;28;20457;-78
2021/10/08 01:08:14;;;;;;;6.83;5.10;;;11.70;99.90;;;;;;4997512;28;20496;-79
2021/10/08 01:10:42;;;;;;;6.33;4.77;;;11.60;99.90;;;;;;5003527;28;20433;-79
2021/10/08 01:13:11;;;;;;;8.60;5.60;;;11.50;99.90;;;;;;5000458;28;20486;-79
2021/10/08 01:15:40;;;;;;;6.10;4.63;;;11.50;99.90;;;;;;4995651;28;20458;-79
2021/10/08 01:18:08;;;;;;;6.90;4.70;;;11.40;99.90;;;;;;4995991;28;20546;-79
2021/10/08 01:20:38;;;;;;;9.27;5.93;;;11.40;99.90;;;;;;4996693;28;20935;-79
2021/10/08 01:23:05;;;;;;;6.57;4.43;;;11.40;99.90;;;;;;5001521;28;20968;-79
2021/10/08 01:25:34;;;;;;;10.80;4.87;;;11.20;99.90;;;;;;5007042;28;20429;-79
2021/10/08 01:28:02;;;;;;;6.00;5.00;;;11.20;99.90;;;;;;5004595;28;20455;-79
2021/10/08 01:30:29;;;;;;;12.13;6.30;;;11.20;99.90;;;;;;5000396;28;20418;-79
2021/10/08 01:32:56;;;;;;;9.00;6.10;;;11.20;99.90;;;;;;5005635;28;20464;-80
2021/10/08 01:35:24;;;;;;;8.73;5.60;;;11.20;99.90;;;;;;4999908;28;20461;-79
2021/10/08 01:37:52;;;;;;;6.47;5.03;;;11.20;99.90;;;;;;5000464;28;20437;-78
2021/10/08 01:40:21;;;;;;;6.30;4.37;;;11.20;99.90;;;;;;5000337;28;20977;-78
2021/10/08 01:42:48;;;;;;;8.77;4.57;;;11.10;99.90;;;;;;5001058;28;20421;-79
2021/10/08 01:45:16;;;;;;;7.07;5.13;;;11.10;99.90;;;;;;5001268;28;20475;-79
2021/10/08 01:47:43;;;;;;;9.67;5.40;;;11.10;99.90;;;;;;5002872;28;20844;-79
2021/10/08 01:50:11;;;;;;;7.43;5.30;;;11.10;99.90;;;;;;5001746;28;20478;-79
2021/10/08 01:52:38;;;;;;;6.70;4.70;;;11.00;99.90;;;;;;5001884;28;20540;-79
2021/10/08 01:55:07;;;;;;;7.90;4.70;;;11.10;99.90;;;;;;5001900;28;20941;-79
2021/10/08 01:57:34;;;;;;;7.77;5.27;;;11.00;99.90;;;;;;5001787;28;20443;-79
2021/10/08 02:00:01;;;;;;;7.43;5.43;;;10.90;99.90;;;;;;5002019;28;20456;-79
2021/10/08 02:02:28;;;;;;;7.10;4.60;;;10.90;99.90;;;;;;5000849;28;20970;-78
2021/10/08 02:04:55;;;;;;;9.33;5.67;;;10.90;99.90;;;;;;5000880;28;20552;-79
2021/10/08 02:07:22;;;;;;;8.50;4.80;;;10.80;99.90;;;;;;5016757;28;20507;-78
2021/10/08 02:09:48;;;;;;;7.50;4.70;;;10.90;99.90;;;;;;5001196;28;20476;-78
2021/10/08 02:12:17;;;;;;;6.03;4.40;;;10.80;99.90;;;;;;5002158;28;20465;-78
2021/10/08 02:14:44;;;;;;;6.10;5.00;;;10.80;99.90;;;;;;5001949;28;20844;-79
2021/10/08 02:17:11;;;;;;;9.80;4.53;;;10.80;99.90;;;;;;5001579;28;20436;-78
2021/10/08 02:19:38;;;;;;;6.50;4.80;;;10.80;99.90;;;;;;5037494;23;20475;-81
2021/10/08 02:22:05;;;;;;;6.67;5.33;;;10.70;99.90;;;;;;5040798;28;20434;-81
2021/10/08 02:24:31;;;;;;;7.00;4.77;;;10.70;99.90;;;;;;5043624;28;20459;-81
2021/10/08 02:26:58;;;;;;;6.90;4.80;;;10.60;99.90;;;;;;5047223;28;20472;-81
2021/10/08 02:29:27;;;;;;;5.90;4.33;;;10.60;99.90;;;;;;5040475;28;20467;-81
2021/10/08 02:31:54;;;;;;;7.93;5.77;;;10.60;99.90;;;;;;5019798;28;20453;-81
2021/10/08 02:34:21;;;;;;;7.03;4.93;;;10.70;99.90;;;;;;5023918;28;20427;-80
2021/10/08 02:36:48;;;;;;;9.87;4.97;;;10.70;99.90;;;;;;5021143;28;20460;-81
2021/10/08 02:39:15;;;;;;;6.70;4.97;;;10.70;99.90;;;;;;5019457;28;20476;-81
2021/10/08 02:41:42;;;;;;;7.47;5.33;;;10.70;99.90;;;;;;5018697;28;20453;-81
2021/10/08 02:44:09;;;;;;;8.43;5.53;;;10.60;99.90;;;;;;5018872;28;20495;-81
2021/10/08 02:46:37;;;;;;;7.10;4.90;;;10.60;99.90;;;;;;5018939;28;20438;-81
2021/10/08 02:49:04;;;;;;;7.40;4.70;;;10.60;99.90;;;;;;5018646;28;20489;-81
2021/10/08 02:51:33;;;;;;;7.30;5.27;;;10.60;99.90;;;;;;5002712;28;20500;-81
2021/10/08 02:54:00;;;;;;;6.40;4.80;;;10.50;99.90;;;;;;5018690;28;20459;-81
2021/10/08 02:56:27;;;;;;;6.40;4.60;;;10.40;99.90;;;;;;5021897;28;20544;-81
2021/10/08 02:58:54;;;;;;;7.00;5.00;;;10.40;99.90;;;;;;5020250;28;20457;-81
2021/10/08 03:01:21;;;;;;;8.60;5.00;;;10.50;99.90;;;;;;5004274;28;20934;-81
2021/10/08 03:03:49;;;;;;;8.00;4.93;;;10.50;99.90;;;;;;5004720;28;20428;-81
2021/10/08 03:06:16;;;;;;;7.60;4.70;;;10.50;99.90;;;;;;5019793;28;20544;-81
2021/10/08 03:08:45;;;;;;;7.10;4.90;;;10.40;99.90;;;;;;5018685;28;20454;-81
2021/10/08 03:11:12;;;;;;;6.83;5.23;;;10.40;99.90;;;;;;5018143;28;20462;-81
2021/10/08 03:13:39;;;;;;;7.60;5.20;;;10.40;99.90;;;;;;5019036;28;20464;-80
2021/10/08 03:16:05;;;;;;;6.13;5.07;;;10.40;99.90;;;;;;5017964;28;20456;-80
2021/10/08 03:18:32;;;;;;;8.07;5.57;;;10.30;99.90;;;;;;5017876;28;20796;-80
2021/10/08 03:21:00;;;;;;;7.50;5.83;;;10.40;99.90;;;;;;5008756;28;20463;-80
2021/10/08 03:23:27;;;;;;;6.40;4.63;;;10.30;99.90;;;;;;4999702;28;20441;-80
2021/10/08 03:25:54;;;;;;;6.87;5.23;;;10.20;99.90;;;;;;5008238;28;20427;-80
2021/10/08 03:28:21;;;;;;;6.93;5.27;;;10.20;99.90;;;;;;5018409;28;20586;-80
2021/10/08 03:30:47;;;;;;;7.60;5.70;;;10.10;99.90;;;;;;5016928;28;20474;-80
2021/10/08 03:33:14;;;;;;;12.77;5.93;;;10.10;99.90;;;;;;5018214;28;20912;-80
2021/10/08 03:35:43;;;;;;;7.00;5.37;;;10.10;99.90;;;;;;5017642;28;20548;-80
2021/10/08 03:38:14;;;;;;;6.90;4.67;;;10.10;99.90;;;;;;5018138;28;20456;-80
2021/10/08 03:40:41;;;;;;;7.50;5.10;;;10.10;99.90;;;;;;5005150;28;20532;-80
2021/10/08 03:43:11;;;;;;;7.37;5.40;;;10.10;99.90;;;;;;5017618;28;20462;-80
2021/10/08 03:45:45;;;;;;;7.10;5.23;;;10.00;99.90;;;;;;5018143;28;20573;-80
2021/10/08 03:48:22;;;;;;;8.70;5.10;;;10.00;99.90;;;;;;5017730;28;20508;-80
2021/10/08 03:50:49;;;;;;;7.17;4.80;;;10.00;99.90;;;;;;5009556;28;20520;-80
2021/10/08 03:53:18;;;;;;;9.50;5.57;;;10.00;99.90;;;;;;5005278;28;20491;-80
2021/10/08 03:55:44;;;;;;;9.30;5.37;;;10.00;99.90;;;;;;5008980;28;20442;-80
2021/10/08 03:58:11;;;;;;;8.53;5.27;;;10.00;99.90;;;;;;5004742;28;20461;-80
2021/10/08 04:00:38;;;;;;;7.60;5.50;;;10.00;99.90;;;;;;5010375;28;20484;-80
2021/10/08 04:03:05;;;;;;;8.63;5.43;;;10.00;99.90;;;;;;4998190;28;20449;-80
2021/10/08 04:05:32;;;;;;;7.90;5.60;;;10.00;99.90;;;;;;4998329;28;20433;-80
2021/10/08 04:07:58;;;;;;;8.47;5.17;;;9.90;99.90;;;;;;5008077;28;20482;-80
2021/10/08 04:10:27;;;;;;;7.33;5.40;;;9.90;99.90;;;;;;5002969;28;20478;-79
2021/10/08 04:12:53;;;;;;;8.43;5.57;;;9.90;99.90;;;;;;5005672;28;20554;-79
2021/10/08 04:15:21;;;;;;;10.50;6.00;;;9.90;99.90;;;;;;5006140;28;20460;-80
2021/10/08 04:17:48;;;;;;;8.60;5.73;;;9.80;99.90;;;;;;5007445;28;20919;-79
2021/10/08 04:20:14;;;;;;;8.00;6.07;;;9.80;99.90;;;;;;5004298;28;20543;-79
2021/10/08 04:22:41;;;;;;;7.00;5.50;;;9.90;99.90;;;;;;5004613;28;20545;-81
2021/10/08 04:25:09;;;;;;;7.77;5.30;;;9.80;99.90;;;;;;5015359;28;20815;-81
2021/10/08 04:27:37;;;;;;;12.83;6.03;;;9.80;99.90;;;;;;4998302;28;20437;-81
2021/10/08 04:30:04;;;;;;;9.70;6.37;;;9.80;99.90;;;;;;4997966;28;20463;-81
2021/10/08 04:32:31;;;;;;;10.57;6.47;;;9.80;99.90;;;;;;5017808;28;20946;-81
2021/10/08 04:34:58;;;;;;;10.50;6.07;;;9.80;99.90;;;;;;5008566;28;20476;-81
2021/10/08 04:37:25;;;;;;;11.23;7.13;;;9.80;99.90;;;;;;4998396;28;20513;-81
2021/10/08 04:39:52;;;;;;;7.13;5.47;;;9.80;99.90;;;;;;4998705;28;20485;-81
2021/10/08 04:42:18;;;;;;;9.67;6.00;;;9.80;99.90;;;;;;4997246;28;20774;-81
2021/10/08 04:44:47;;;;;;;9.07;6.03;;;9.70;99.90;;;;;;4998483;28;20553;-81
2021/10/08 04:47:13;;;;;;;8.27;6.18;;;9.70;99.90;;;;;;5015787;28;20205;-81
2021/10/08 04:49:41;;;;;;;8.23;5.60;;;9.70;99.90;;;;;;5001241;28;20254;-81
2021/10/08 04:52:09;;;;;;;8.27;6.37;;;9.70;99.90;;;;;;4999674;28;20461;-81
2021/10/08 04:54:37;;;;;;;11.13;6.00;;;9.70;99.90;;;;;;4997734;28;20527;-81
2021/10/08 04:57:04;;;;;;;8.60;5.70;;;9.80;99.90;;;;;;5016285;28;20472;-81
2021/10/08 04:59:31;;;;;;;7.70;5.53;;;9.70;99.90;;;;;;5018460;28;20476;-81
2021/10/08 05:01:59;;;;;;;9.33;6.73;;;9.70;99.90;;;;;;5012957;28;20554;-81
2021/10/08 05:04:26;;;;;;;8.80;6.70;;;9.70;99.90;;;;;;5000873;28;20450;-81
2021/10/08 05:06:53;;;;;;;10.80;6.43;;;9.60;99.90;;;;;;5014953;28;20788;-81
2021/10/08 05:09:20;;;;;;;10.02;5.70;;;9.60;99.90;;;;;;5001736;28;20470;-80
2021/10/08 05:11:46;;;;;;;9.70;5.75;;;9.60;99.90;;;;;;4997987;28;20651;-81
2021/10/08 05:14:16;;;;;;;9.20;5.73;;;9.60;99.90;;;;;;5000761;28;20321;-81
2021/10/08 05:16:44;;;;;;;9.33;6.53;;;9.70;99.90;;;;;;5002409;28;20516;-81
2021/10/08 05:19:12;;;;;;;13.00;6.37;;;9.60;99.90;;;;;;5010294;28;20546;-81
2021/10/08 05:21:38;;;;;;;9.50;5.60;;;9.70;99.90;;;;;;5017464;28;20562;-81
2021/10/08 05:24:06;;;;;;;10.83;6.47;;;9.70;99.90;;;;;;5002526;28;20557;-80
2021/10/08 05:26:33;;;;;;;11.20;6.60;;;9.70;99.90;;;;;;5040255;28;20516;-80
2021/10/08 05:29:00;;;;;;;9.03;6.53;;;9.60;99.90;;;;;;5035349;28;20493;-80
2021/10/08 05:31:27;;;;;;;9.77;7.50;;;9.60;99.90;;;;;;5034596;28;20452;-80
2021/10/08 05:33:53;;;;;;;11.30;6.07;;;9.60;99.90;;;;;;5033566;28;20520;-79
2021/10/08 05:36:22;;;;;;;12.63;6.77;;;9.60;99.90;;;;;;5031605;28;20418;-80
2021/10/08 05:38:48;;;;;;;9.35;6.75;;;9.60;99.90;;;;;;5026827;28;20472;-80
2021/10/08 05:41:15;;;;;;;8.07;6.30;;;9.80;99.90;;;;;;5029467;28;20212;-80
2021/10/08 05:43:42;;;;;;;9.00;6.27;;;9.70;99.90;;;;;;5016119;28;20289;-80
2021/10/08 05:46:09;;;;;;;10.50;7.87;;;9.70;99.90;;;;;;5029759;28;20455;-80
2021/10/08 05:48:36;;;;;;;10.57;6.43;;;9.60;99.90;;;;;;5002053;28;20473;-80
2021/10/08 05:51:03;;;;;;;9.17;6.83;;;9.60;99.90;;;;;;5001852;28;20430;-80
2021/10/08 05:53:31;;;;;;;11.52;6.82;;;9.50;99.90;;;;;;5006163;28;20487;-80
2021/10/08 05:55:58;;;;;;;9.40;7.40;;;9.60;99.90;;;;;;5020284;28;20296;-80
2021/10/08 05:58:25;;;;;;;13.20;8.07;;;9.50;99.90;;;;;;5008153;28;20468;-80
2021/10/08 06:00:52;;;;;;;12.37;7.97;;;9.50;99.90;;;;;;5001013;28;20556;-81
2021/10/08 06:03:18;;;;;;;9.50;6.80;;;9.60;99.90;;;;;;5006507;28;20460;-81
2021/10/08 06:05:45;;;;;;;9.43;7.30;;;9.60;99.90;;;;;;5024906;28;20423;-81
2021/10/08 06:08:12;;;;;;;9.17;7.13;;;9.60;99.90;;;;;;5015708;28;20464;-80
2021/10/08 06:10:41;;;;;;;8.90;7.13;;;9.50;99.90;;;;;;5002380;28;20482;-80
2021/10/08 06:13:08;;;;;;;12.37;7.80;;;9.60;99.90;;;;;;5030040;28;20460;-80
2021/10/08 06:15:36;;;;;;;10.30;7.30;;;9.60;99.90;;;;;;5021102;28;20492;-81
2021/10/08 06:18:03;;;;;;;10.95;7.18;;;9.50;99.90;;;;;;5019747;28;20514;-80
2021/10/08 06:20:29;;;;;;;11.98;7.45;;;9.60;99.90;;;;;;5020312;28;20241;-80
2021/10/08 06:22:58;;;;;;;17.30;8.13;;;9.60;99.90;;;;;;5019216;28;20217;-79
2021/10/08 06:25:25;;;;;;;13.30;8.27;;;9.60;99.90;;;;;;5010700;28;20462;-83
2021/10/08 06:27:53;;;;;;;10.90;8.53;;;9.60;99.90;;;;;;5033672;28;20441;-83
2021/10/08 06:30:20;;;;;;;11.27;8.00;;;9.60;99.90;;;;;;5034044;28;20510;-82
2021/10/08 06:32:47;;;;;;;9.63;7.57;;;9.60;99.90;;;;;;5030931;28;20452;-82
2021/10/08 06:35:14;;;;;;;10.60;7.20;;;9.60;99.90;;;;;;5012821;28;20996;-82
2021/10/08 06:37:41;;;;;;;12.33;8.77;;;9.70;99.90;;;;;;5017682;28;20466;-83
2021/10/08 06:40:09;;;;;;;10.63;8.40;;;9.70;99.90;;;;;;5025017;28;20451;-84
2021/10/08 06:42:36;;;;;;;12.37;9.23;;;9.70;99.90;;;;;;5021492;28;20206;-82
2021/10/08 06:45:06;;;;;;;14.50;10.03;;;9.80;99.90;;;;;;5022028;28;21043;-84
2021/10/08 06:47:33;;;;;;;15.97;8.87;;;9.90;99.90;;;;;;5038625;28;20499;-84
2021/10/08 06:50:00;;;;;;;14.40;9.30;;;9.90;99.90;;;;;;5037560;28;20488;-83
2021/10/08 06:52:26;;;;;;;12.37;10.07;;;10.00;99.90;;;;;;5000256;28;20748;-81
2021/10/08 06:54:54;;;;;;;14.20;10.00;;;10.00;99.90;;;;;;5003257;28;20495;-81
2021/10/08 06:57:21;;;;;;;12.40;9.13;;;10.10;99.90;;;;;;5005760;28;20434;-80
2021/10/08 06:59:48;;;;;;;12.57;8.43;;;10.20;99.90;;;;;;5019276;28;20620;-81
2021/10/08 07:02:17;;;;;;;14.97;10.10;;;10.30;99.90;;;;;;5022175;28;20599;-80
2021/10/08 07:04:44;;;;;;;11.47;9.23;;;10.40;99.90;;;;;;5020050;28;20602;-81
2021/10/08 07:07:11;;;;;;;12.50;9.70;;;10.40;99.90;;;;;;5028765;28;20453;-82
2021/10/08 07:09:38;;;;;;;14.50;9.50;;;10.50;99.90;;;;;;5019293;28;21028;-84
2021/10/08 07:12:05;;;;;;;12.37;10.00;;;10.60;99.90;;;;;;5022254;28;20419;-82
2021/10/08 07:14:32;;;;;;;17.03;11.13;;;10.60;99.90;;;;;;5010409;28;20511;-85
2021/10/08 07:16:59;;;;;;;15.73;10.73;;;10.70;99.90;;;;;;5021956;28;20523;-85
2021/10/08 07:19:28;;;;;;;15.43;11.43;;;10.70;99.90;;;;;;5016248;28;20498;-85
2021/10/08 07:21:54;;;;;;;15.40;12.03;;;10.70;99.90;;;;;;5014731;28;20470;-86
2021/10/08 07:24:21;;;;;;;15.50;12.80;;;10.80;99.90;;;;;;5009801;28;20490;-85
2021/10/08 07:26:48;;;;;;;16.70;13.67;;;10.80;99.90;;;;;;5008756;28;20524;-85
2021/10/08 07:29:15;;;;;;;17.27;13.10;;;10.90;99.90;;;;;;5007383;28;20474;-85
2021/10/08 07:31:42;;;;;;;17.57;12.53;;;10.90;99.90;;;;;;5021190;28;20458;-85
2021/10/08 07:34:10;;;;;;;17.80;12.77;;;11.00;99.90;;;;;;5022250;28;20502;-85
2021/10/08 07:36:38;;;;;;;15.77;13.30;;;11.10;99.90;;;;;;5020240;28;20435;-80
2021/10/08 07:39:05;;;;;;;14.80;12.00;;;11.10;99.90;;;;;;5020609;28;20465;-80
2021/10/08 07:41:32;;;;;;;18.47;13.50;;;11.10;99.90;;;;;;5025123;28;20481;-80
2021/10/08 07:43:59;;;;;;;13.70;11.67;;;11.30;99.90;;;;;;5021188;28;20430;-80
2021/10/08 07:46:26;;;;;;;17.40;12.80;;;11.40;99.90;;;;;;4997890;28;20562;-80
2021/10/08 07:48:53;;;;;;;15.63;11.73;;;11.60;99.90;;;;;;4997269;28;20523;-81
2021/10/08 07:51:20;;;;;;;16.97;13.17;;;11.60;99.90;;;;;;4996946;28;20514;-80
2021/10/08 07:53:49;;;;;;;15.00;12.27;;;11.80;99.90;;;;;;4997101;28;20482;-80
2021/10/08 07:56:16;;;;;;;16.40;12.40;;;11.80;99.90;;;;;;4997072;28;20549;-81
2021/10/08 07:58:42;;;;;;;17.03;11.67;;;11.80;99.90;;;;;;4997259;28;20518;-80
2021/10/08 08:01:09;;;;;;;16.63;13.00;;;11.90;99.90;;;;;;4996753;28;20428;-81
2021/10/08 08:03:36;;;;;;;16.40;13.50;;;11.90;99.90;;;;;;4997493;28;20449;-80
2021/10/08 08:06:03;;;;;;;18.30;12.30;;;12.00;99.90;;;;;;5002314;28;20425;-80
2021/10/08 08:08:30;;;;;;;15.77;12.63;;;12.20;99.90;;;;;;5000137;28;20418;-81
2021/10/08 08:10:58;;;;;;;16.70;12.67;;;12.20;99.90;;;;;;4997980;28;20538;-81
2021/10/08 08:13:25;;;;;;;15.03;11.80;;;12.30;99.90;;;;;;5012551;28;20455;-80
2021/10/08 08:15:52;;;;;;;16.23;12.50;;;12.40;99.90;;;;;;5018028;28;20576;-80
2021/10/08 08:18:19;;;;;;;16.03;12.10;;;12.70;99.90;;;;;;5016518;28;20454;-80
2021/10/08 08:20:46;;;;;;;17.87;12.63;;;12.80;99.90;;;;;;5043926;23;20531;-80
2021/10/08 08:23:15;;;;;;;19.17;13.33;;;12.70;99.90;;;;;;5037579;28;20423;-80
2021/10/08 08:25:42;;;;;;;17.03;11.40;;;12.80;99.90;;;;;;5036914;28;20531;-81
2021/10/08 08:28:11;;;;;;;19.13;12.40;;;12.70;99.90;;;;;;5038365;28;20475;-81
2021/10/08 08:30:39;;;;;;;14.37;10.80;;;12.80;99.90;;;;;;5038479;28;20905;-80
2021/10/08 08:33:06;;;;;;;14.10;11.40;;;13.00;99.90;;;;;;5037637;28;20455;-81
2021/10/08 08:35:33;;;;;;;15.90;11.50;;;12.90;99.90;;;;;;5043324;28;20524;-81
2021/10/08 08:38:00;;;;;;;17.77;11.60;;;13.10;99.90;;;;;;5052131;28;20465;-81
2021/10/08 08:40:29;;;;;;;14.70;11.83;;;13.10;99.90;;;;;;5027339;28;20481;-79
2021/10/08 08:42:57;;;;;;;15.40;11.93;;;13.00;99.90;;;;;;5017308;28;20433;-80
2021/10/08 08:45:26;;;;;;;17.63;10.43;;;13.10;99.90;;;;;;5017504;28;20451;-80
2021/10/08 08:48:01;;;;;;;15.40;11.83;;;13.10;99.90;;;;;;5020022;28;20545;-80
2021/10/08 08:50:28;;;;;;;13.63;11.50;;;13.00;99.90;;;;;;5021020;28;20582;-81
2021/10/08 08:52:55;;;;;;;15.13;13.37;;;13.20;99.90;;;;;;5022917;28;20433;-80
2021/10/08 08:55:22;;;;;;;14.80;11.90;;;13.20;99.90;;;;;;5024595;28;20554;-81
2021/10/08 08:57:49;;;;;;;15.47;12.00;;;13.20;99.90;;;;;;5022382;28;20504;-81
2021/10/08 09:00:18;;;;;;;14.90;10.87;;;13.30;99.90;;;;;;5022222;28;20439;-82
2021/10/08 09:02:53;;;;;;;12.97;11.20;;;13.40;99.90;;;;;;5021505;28;20486;-80
2021/10/08 09:05:22;;;;;;;16.40;11.77;;;13.60;99.90;;;;;;5021412;28;20441;-80
2021/10/08 09:07:49;;;;;;;15.10;12.20;;;13.70;99.90;;;;;;5029858;28;20951;-79
2021/10/08 09:10:18;;;;;;;20.10;10.83;;;13.90;99.90;;;;;;5041700;28;20424;-80
2021/10/08 09:12:46;;;;;;;17.07;12.97;;;14.00;99.90;;;;;;5044704;28;20488;-79
2021/10/08 09:15:14;;;;;;;15.30;10.63;;;13.90;99.90;;;;;;5045999;28;20519;-81
2021/10/08 09:17:42;;;;;;;18.13;12.20;;;14.10;99.90;;;;;;5040877;28;20483;-80
2021/10/08 09:20:11;;;;;;;14.60;10.30;;;14.00;99.90;;;;;;5039433;28;20434;-79
2021/10/08 09:22:54;;;;;;;14.87;10.90;;;14.10;99.90;;;;;;5043840;28;20457;-80
2021/10/08 09:25:26;;;;;;;13.60;10.00;;;14.00;99.90;;;;;;5025786;28;20424;-80
2021/10/08 09:27:55;;;;;;;13.50;10.50;;;14.20;99.90;;;;;;5020580;28;20540;-81
2021/10/08 09:30:26;;;;;;;13.37;11.73;;;14.20;99.90;;;;;;5020739;28;20466;-80
2021/10/08 09:32:57;;;;;;;13.00;10.87;;;14.20;99.90;;;;;;5022064;28;20477;-81
2021/10/08 09:35:27;;;;;;;10.80;9.20;;;14.30;99.90;;;;;;5019977;28;21110;-80
2021/10/08 09:37:56;;;;;;;13.73;10.40;;;14.50;99.90;;;;;;5020212;28;20886;-79
2021/10/08 09:40:26;;;;;;;13.47;10.93;;;14.50;99.90;;;;;;5028264;28;20456;-79
2021/10/08 09:42:57;;;;;;;15.77;11.23;;;14.30;99.90;;;;;;5040923;28;20875;-79
2021/10/08 09:45:39;;;;;;;14.40;11.03;;;14.30;99.90;;;;;;5039662;28;20456;-80
2021/10/08 09:48:06;;;;;;;14.23;10.23;;;14.30;99.90;;;;;;5042722;28;20577;-80
2021/10/08 09:50:35;;;;;;;18.00;11.47;;;14.30;99.90;;;;;;5039536;28;20532;-80
2021/10/08 09:53:13;;;;;;;17.00;11.23;;;14.50;99.90;;;;;;5039448;28;20445;-81
2021/10/08 09:55:43;;;;;;;19.77;11.57;;;14.50;99.90;;;;;;5039230;28;20471;-81
2021/10/08 09:58:10;;;;;;;16.20;11.90;;;14.40;99.90;;;;;;5036329;28;20490;-80
2021/10/08 10:00:42;;;;;;;16.83;13.00;;;14.30;99.90;;;;;;5039478;28;20436;-80
2021/10/08 10:03:10;;;;;;;14.03;11.50;;;14.20;99.90;;;;;;5040207;28;20457;-80
2021/10/08 10:05:39;;;;;;;13.23;11.10;;;14.30;99.90;;;;;;5043496;28;20434;-80
2021/10/08 10:08:06;;;;;;;14.10;10.70;;;14.40;99.90;;;;;;5045699;28;20453;-81
2021/10/08 10:10:35;;;;;;;13.00;10.40;;;14.60;99.90;;;;;;5041609;28;20497;-80
2021/10/08 10:13:04;;;;;;;15.00;10.90;;;14.80;99.90;;;;;;5040620;28;20483;-81
2021/10/08 10:15:31;;;;;;;15.33;11.90;;;14.80;99.90;;;;;;5024220;28;20477;-80
2021/10/08 10:18:03;;;;;;;15.80;11.47;;;14.90;99.90;;;;;;5020355;28;20455;-80
2021/10/08 10:20:30;;;;;;;13.10;10.77;;;14.90;99.90;;;;;;5029698;28;20489;-77
2021/10/08 10:23:00;;;;;;;13.10;11.37;;;15.00;99.90;;;;;;5023440;28;21006;-81
2021/10/08 10:25:28;;;;;;;14.23;9.90;;;15.00;99.90;;;;;;5021059;28;20482;-80
2021/10/08 10:27:56;;;;;;;16.80;10.50;;;15.10;99.90;;;;;;5024942;28;20530;-81
2021/10/08 10:30:23;;;;;;;12.43;9.70;;;15.30;99.90;;;;;;5035192;28;20449;-81
2021/10/08 10:32:51;;;;;;;12.07;9.97;;;15.20;99.90;;;;;;5042455;28;20413;-81
2021/10/08 10:35:44;;;;;;;24.80;12.10;;;14.90;99.90;;;;;;5055014;28;20465;-78
2021/10/08 10:38:30;;;;;;;26.67;12.43;;;14.90;99.90;;;;;;5042941;28;20515;-80
2021/10/08 10:41:25;;;;;;;16.43;10.97;;;14.70;99.90;;;;;;5039572;28;20508;-80
2021/10/08 10:44:11;;;;;;;25.30;11.93;;;14.80;99.90;;;;;;5039141;28;20408;-79
2021/10/08 10:46:46;;;;;;;13.60;9.93;;;14.90;99.90;;;;;;5037550;28;20461;-78
2021/10/08 10:52:28;;;;;;;18.50;11.97;;;15.20;99.90;;;;;;5004368;28;20442;-80
2021/10/08 10:55:09;;;;;;;17.23;12.43;;;15.10;99.90;;;;;;5002394;28;20505;-82
2021/10/08 10:58:03;;;;;;;16.53;11.73;;;15.20;99.90;;;;;;5021942;28;20457;-79
2021/10/08 11:00:41;;;;;;;13.37;10.23;;;15.30;99.90;;;;;;5017102;28;20470;-79
2021/10/08 11:03:12;;;;;;;12.70;9.60;;;15.50;99.90;;;;;;5013934;28;20426;-80
2021/10/08 11:05:41;;;;;;;24.10;10.90;;;15.50;99.90;;;;;;5007836;28;20463;-80
2021/10/08 11:08:10;;;;;;;16.40;9.93;;;15.60;99.90;;;;;;5015109;28;20474;-79
2021/10/08 11:10:41;;;;;;;18.93;9.47;;;15.70;99.90;;;;;;5012070;28;20536;-81
2021/10/08 11:13:29;;;;;;;20.13;11.23;;;15.60;99.90;;;;;;5011055;28;20451;-83
2021/10/08 11:16:02;;;;;;;14.37;10.50;;;15.50;99.90;;;;;;5013192;28;20483;-79
2021/10/08 11:18:46;;;;;;;18.30;10.73;;;15.50;99.90;;;;;;5005054;28;20430;-83
2021/10/08 11:21:30;;;;;;;15.37;10.90;;;15.50;99.90;;;;;;5018327;28;20575;-85
2021/10/08 11:24:01;;;;;;;14.13;11.23;;;15.40;99.90;;;;;;5023473;28;20549;-81
2021/10/08 11:26:29;;;;;;;13.80;9.33;;;15.60;99.90;;;;;;5021779;28;20444;-81
2021/10/08 11:28:58;;;;;;;13.10;10.07;;;15.70;99.90;;;;;;5004162;28;20459;-81
2021/10/08 11:31:25;;;;;;;13.00;10.23;;;15.60;99.90;;;;;;5016851;28;20512;-85
2021/10/08 11:33:54;;;;;;;12.40;10.00;;;15.70;99.90;;;;;;5016196;28;20494;-78
2021/10/08 11:36:28;;;;;;;14.50;10.30;;;15.70;99.90;;;;;;5014999;28;20501;-82
2021/10/08 11:39:11;;;;;;;15.60;9.70;;;15.50;99.90;;;;;;5015091;28;20901;-82
2021/10/08 11:41:41;;;;;;;11.53;8.53;;;15.50;99.90;;;;;;4997997;28;20472;-81
2021/10/08 11:44:16;;;;;;;12.90;9.90;;;15.50;99.90;;;;;;5011658;28;20450;-81
2021/10/08 11:47:06;;;;;;;12.93;10.07;;;15.40;99.90;;;;;;5030330;28;20449;-82
2021/10/08 11:49:47;;;;;;;16.70;11.93;;;15.40;99.90;;;;;;4998450;28;20530;-81
2021/10/08 11:52:16;;;;;;;12.93;11.00;;;15.40;99.90;;;;;;5010693;28;20501;-80
2021/10/08 11:54:43;;;;;;;14.77;8.53;;;15.60;99.90;;;;;;5021690;28;20546;-80
2021/10/08 11:57:13;;;;;;;17.30;10.77;;;15.70;99.90;;;;;;5009490;28;20483;-80
2021/10/08 11:59:57;;;;;;;14.53;10.13;;;15.60;99.90;;;;;;5001440;28;20476;-80
2021/10/08 12:02:24;;;;;;;16.53;11.13;;;15.50;99.90;;;;;;5017657;28;20489;-81
2021/10/08 12:05:04;;;;;;;24.57;13.47;;;15.60;99.90;;;;;;5020942;28;20484;-79
2021/10/08 12:07:35;;;;;;;16.73;10.90;;;15.80;99.90;;;;;;5000630;28;20447;-79
2021/10/08 12:10:13;;;;;;;14.70;8.73;;;16.00;99.90;;;;;;5000042;28;20458;-78
2021/10/08 12:12:51;;;;;;;14.53;9.73;;;16.00;99.90;;;;;;4999640;28;20426;-79
2021/10/08 12:15:23;;;;;;;15.40;11.73;;;15.70;99.90;;;;;;5003259;28;21011;-78
2021/10/08 12:17:50;;;;;;;15.43;10.30;;;15.70;99.90;;;;;;5006738;28;20436;-80
2021/10/08 12:20:23;;;;;;;14.63;11.40;;;15.70;99.90;;;;;;5004197;28;20463;-78
2021/10/08 12:22:50;;;;;;;17.63;12.40;;;15.80;99.90;;;;;;5004637;28;20422;-83
2021/10/08 12:25:21;;;;;;;14.80;9.50;;;15.70;99.90;;;;;;5008765;28;20481;-80
2021/10/08 12:27:50;;;;;;;13.70;9.63;;;16.00;99.90;;;;;;4996871;28;20982;-79
2021/10/08 12:30:17;;;;;;;15.50;10.53;;;16.20;99.90;;;;;;5000356;28;20431;-80
2021/10/08 12:33:02;;;;;;;16.50;8.90;;;16.30;99.90;;;;;;5017268;28;20483;-81
2021/10/08 12:35:29;;;;;;;12.17;8.50;;;16.30;99.90;;;;;;5021226;28;20493;-80
2021/10/08 12:38:01;;;;;;;11.70;10.27;;;16.00;99.90;;;;;;5012415;28;20457;-82
2021/10/08 12:40:28;;;;;;;18.03;10.70;;;16.00;99.90;;;;;;5017703;28;20581;-81
2021/10/08 12:42:58;;;;;;;12.90;9.77;;;16.00;99.90;;;;;;5017076;28;20929;-80
2021/10/08 12:45:32;;;;;;;15.37;9.73;;;16.10;99.90;;;;;;5015827;28;20426;-81
2021/10/08 12:48:00;;;;;;;15.20;11.03;;;16.30;99.90;;;;;;5003388;28;20458;-83
2021/10/08 12:50:28;;;;;;;13.67;9.77;;;16.10;99.90;;;;;;5006859;28;20532;-82
2021/10/08 12:52:56;;;;;;;12.60;8.50;;;16.00;99.90;;;;;;5014970;28;20437;-81